This is the latest recevied weather packets stored in our database for station/object SQ6XL-13. If no packets are shown the sender has not sent any weather packets the latest 1 day(s).
| Time | Temp. | Humidity | Pressure | Rain* | Wind** | Luminosity | Snow |
|---|---|---|---|---|---|---|---|
| 1777959133 | 16.67° C | 55% | 1010 hPa | 0 mm | - | - | - |
| 1777958572 | 16.11° C | 60% | 1010 hPa | 0 mm | - | - | - |
| 1777958006 | 14.44° C | 67% | 1010.1 hPa | 0 mm | - | - | - |
| 1777957422 | 13.33° C | 79% | 1010.2 hPa | 0 mm | - | - | - |
| 1777956887 | 12.22° C | 82% | 1010.1 hPa | 0 mm | - | - | - |
| 1777956382 | 11.67° C | 83% | 1010.2 hPa | 0 mm | - | - | - |
| 1777955782 | 11.11° C | 83% | 1010.3 hPa | 0 mm | - | - | - |
| 1777955237 | 11.11° C | 83% | 1010.4 hPa | 0 mm | - | - | - |
| 1777954702 | 10.56° C | 84% | 1010.4 hPa | 0 mm | - | - | - |
| 1777954177 | 10° C | 84% | 1010.3 hPa | 0 mm | - | - | - |
| 1777953602 | 9.44° C | 84% | 1010.5 hPa | 0 mm | - | - | - |
| 1777953052 | 9.44° C | 84% | 1010.5 hPa | 0 mm | - | - | - |
| 1777952552 | 9.44° C | 83% | 1010.5 hPa | 0 mm | - | - | - |
| 1777952012 | 9.44° C | 82% | 1010.4 hPa | 0 mm | - | - | - |
| 1777951532 | 10° C | 82% | 1010.5 hPa | 0 mm | - | - | - |
| 1777950987 | 10° C | 81% | 1010.6 hPa | 0 mm | - | - | - |
| 1777950432 | 10° C | 81% | 1010.7 hPa | 0 mm | - | - | - |
| 1777949887 | 10.56° C | 80% | 1010.9 hPa | 0 mm | - | - | - |
| 1777949392 | 11.11° C | 80% | 1010.9 hPa | 0 mm | - | - | - |
| 1777948902 | 11.11° C | 80% | 1010.9 hPa | 0 mm | - | - | - |
| 1777948337 | 11.67° C | 79% | 1011.1 hPa | 0 mm | - | - | - |
| 1777947852 | 11.67° C | 78% | 1011.1 hPa | 0 mm | - | - | - |
| 1777947307 | 12.22° C | 77% | 1011.2 hPa | 0 mm | - | - | - |
| 1777946827 | 12.78° C | 76% | 1011.2 hPa | 0 mm | - | - | - |
| 1777946252 | 12.78° C | 75% | 1011.3 hPa | 0 mm | - | - | - |
* Rain latest hour (hover to see other rain measurements)
** Current wind speed in m/s (hover to see current wind gust speed)